createdAt,value
2022-08-08T00:00:54.452Z,16.10
2022-08-08T00:02:43.157Z,16.00
2022-08-08T00:05:43.284Z,16.10
2022-08-08T00:08:38.928Z,16.00
2022-08-08T00:11:23.663Z,15.90
2022-08-08T00:14:17.442Z,15.90
2022-08-08T00:17:23.429Z,15.90
2022-08-08T00:19:58.279Z,15.80
2022-08-08T00:22:30.693Z,15.80
2022-08-08T00:25:10.750Z,15.80
2022-08-08T00:27:42.173Z,15.70
2022-08-08T00:30:15.866Z,15.70
2022-08-08T00:32:51.454Z,15.70
2022-08-08T00:35:56.710Z,15.70
2022-08-08T00:38:51.817Z,15.60
2022-08-08T00:42:08.064Z,15.60
2022-08-08T00:45:21.781Z,15.60
2022-08-08T00:48:29.825Z,15.50
2022-08-08T00:51:15.186Z,15.50
2022-08-08T00:54:04.690Z,15.40
2022-08-08T00:57:08.368Z,15.40
2022-08-08T01:00:06.538Z,15.40
2022-08-08T01:03:57.573Z,15.40
2022-08-08T01:06:43.253Z,15.30
2022-08-08T01:09:36.487Z,15.30
2022-08-08T01:12:50.143Z,15.20
2022-08-08T01:16:00.259Z,15.20
2022-08-08T01:18:57.580Z,15.10
2022-08-08T01:22:13.172Z,15.10
2022-08-08T01:25:14.442Z,15.10
2022-08-08T01:28:18.628Z,15.10
2022-08-08T01:32:06.319Z,15.00
2022-08-08T01:34:28.819Z,15.00
2022-08-08T01:37:56.186Z,15.00
2022-08-08T01:40:54.255Z,15.00
2022-08-08T01:43:34.726Z,14.90
2022-08-08T01:46:47.485Z,14.90
2022-08-08T01:49:43.705Z,14.90
2022-08-08T01:54:12.245Z,14.80
2022-08-08T01:56:29.488Z,14.70
2022-08-08T01:58:46.227Z,14.70
2022-08-08T02:02:03.182Z,14.70
2022-08-08T02:05:04.650Z,14.60
2022-08-08T02:08:18.362Z,14.70
2022-08-08T02:11:23.563Z,14.60
2022-08-08T02:14:12.436Z,14.60
2022-08-08T02:16:58.731Z,14.70
2022-08-08T02:20:07.706Z,14.70
2022-08-08T02:22:56.480Z,14.70
2022-08-08T02:26:02.426Z,14.70
2022-08-08T02:28:56.748Z,14.70
2022-08-08T02:31:58.574Z,14.60
2022-08-08T02:35:10.451Z,14.60
2022-08-08T02:38:15.544Z,14.60
2022-08-08T02:41:58.428Z,14.50
2022-08-08T02:44:57.400Z,14.50
2022-08-08T02:47:32.781Z,14.50
2022-08-08T02:50:24.407Z,14.50
2022-08-08T02:53:25.458Z,14.50
2022-08-08T02:56:20.758Z,14.50
2022-08-08T02:59:37.328Z,14.40
2022-08-08T03:02:50.546Z,14.40
2022-08-08T03:05:32.823Z,14.40
2022-08-08T03:08:37.167Z,14.40
2022-08-08T03:11:47.865Z,14.30
2022-08-08T03:15:59.704Z,14.30
2022-08-08T03:18:05.176Z,14.20
2022-08-08T03:20:47.043Z,14.20
2022-08-08T03:23:23.447Z,14.20
2022-08-08T03:25:51.819Z,14.20
2022-08-08T03:28:28.267Z,14.20
2022-08-08T03:31:07.548Z,14.20
2022-08-08T03:33:55.161Z,14.20
2022-08-08T03:36:31.127Z,14.20
2022-08-08T03:39:14.262Z,14.20
2022-08-08T03:42:27.862Z,14.20
2022-08-08T03:44:38.730Z,14.10
2022-08-08T03:47:20.576Z,14.10
2022-08-08T03:50:00.490Z,14.10
2022-08-08T03:52:35.572Z,14.00
2022-08-08T03:55:55.542Z,14.00
2022-08-08T03:58:34.520Z,13.90
2022-08-08T04:01:01.687Z,13.90
2022-08-08T04:03:59.155Z,13.90
2022-08-08T04:06:23.630Z,13.90
2022-08-08T04:08:56.295Z,13.90
2022-08-08T04:11:25.339Z,13.90
2022-08-08T04:14:33.115Z,14.00
2022-08-08T04:16:42.886Z,14.00
2022-08-08T04:19:23.036Z,14.00
2022-08-08T04:21:54.252Z,14.20
2022-08-08T04:24:29.009Z,14.30
2022-08-08T04:26:59.432Z,14.50
2022-08-08T04:29:33.151Z,14.60
2022-08-08T04:32:07.467Z,14.80
2022-08-08T04:34:49.361Z,15.00
2022-08-08T04:37:31.618Z,15.20
2022-08-08T04:40:07.769Z,15.50
2022-08-08T04:42:46.629Z,15.70
2022-08-08T04:45:26.599Z,16.00
2022-08-08T04:47:57.153Z,16.30
2022-08-08T04:50:32.585Z,16.60
2022-08-08T04:53:14.052Z,16.90
2022-08-08T04:55:56.288Z,17.20
2022-08-08T04:58:27.382Z,17.60
2022-08-08T05:00:54.921Z,17.90
2022-08-08T05:04:07.945Z,18.20
2022-08-08T05:06:12.732Z,18.50
2022-08-08T05:08:43.149Z,19.00
2022-08-08T05:11:20.077Z,19.30
2022-08-08T05:13:58.126Z,19.70
2022-08-08T05:16:51.310Z,20.10
2022-08-08T05:20:12.226Z,20.50
2022-08-08T05:22:09.054Z,20.90
2022-08-08T05:24:40.387Z,21.30
2022-08-08T05:27:07.946Z,21.80
2022-08-08T05:29:37.809Z,22.20
2022-08-08T05:32:09.773Z,22.60
2022-08-08T05:34:47.566Z,22.80
2022-08-08T05:37:23.703Z,23.10
2022-08-08T05:40:07.110Z,23.30
2022-08-08T05:42:42.782Z,23.60
2022-08-08T05:45:30.572Z,23.80
2022-08-08T05:48:08.291Z,24.10
2022-08-08T05:50:38.581Z,24.40
2022-08-08T05:53:53.635Z,24.80
2022-08-08T05:56:10.560Z,25.10
2022-08-08T05:58:54.007Z,25.70
2022-08-08T06:01:52.564Z,26.10
2022-08-08T06:04:23.013Z,26.60
2022-08-08T06:07:00.037Z,27.00
2022-08-08T06:09:58.187Z,27.50
2022-08-08T06:12:29.597Z,27.90
2022-08-08T06:15:03.115Z,28.30
2022-08-08T06:18:18.758Z,28.60
2022-08-08T06:20:21.893Z,29.00
2022-08-08T06:22:51.071Z,29.10
2022-08-08T06:25:58.949Z,29.50
2022-08-08T06:28:29.192Z,29.70
2022-08-08T06:31:00.929Z,29.70
2022-08-08T06:34:25.168Z,29.80
2022-08-08T06:36:53.682Z,30.00
2022-08-08T06:39:25.657Z,30.00
2022-08-08T06:42:03.872Z,29.80
2022-08-08T06:44:42.719Z,29.80
2022-08-08T06:47:10.764Z,29.50
2022-08-08T06:49:55.781Z,29.70
2022-08-08T06:52:27.838Z,30.10
2022-08-08T06:55:00.330Z,30.60
2022-08-08T06:57:29.453Z,31.10
2022-08-08T07:00:16.469Z,31.30
2022-08-08T07:03:02.063Z,31.30
2022-08-08T07:05:40.017Z,31.70
2022-08-08T07:08:29.326Z,32.20
2022-08-08T07:10:59.301Z,32.50
2022-08-08T07:13:38.640Z,32.80
2022-08-08T07:16:37.820Z,33.00
2022-08-08T07:19:33.221Z,33.00
2022-08-08T07:22:12.013Z,33.30
2022-08-08T07:24:56.627Z,33.70
2022-08-08T07:27:35.286Z,34.00
2022-08-08T07:30:19.739Z,34.30
2022-08-08T07:32:54.269Z,34.70
2022-08-08T07:35:21.802Z,34.50
2022-08-08T07:38:04.492Z,34.50
2022-08-08T07:40:45.429Z,35.10
2022-08-08T07:43:14.304Z,35.70
2022-08-08T07:46:04.886Z,36.00
2022-08-08T07:48:36.443Z,36.30
2022-08-08T07:51:04.619Z,36.70
2022-08-08T07:54:01.110Z,36.70
2022-08-08T07:56:51.748Z,36.70
2022-08-08T07:59:21.864Z,36.70
2022-08-08T08:02:36.098Z,36.60
2022-08-08T08:04:55.574Z,36.70
2022-08-08T08:07:32.087Z,36.90
2022-08-08T08:10:05.321Z,37.20
2022-08-08T08:12:42.933Z,37.30
2022-08-08T08:15:16.162Z,37.30
2022-08-08T08:17:48.110Z,37.50
2022-08-08T08:20:21.900Z,37.60
2022-08-08T08:22:57.136Z,37.40
2022-08-08T08:25:43.197Z,37.00
2022-08-08T08:28:16.887Z,36.80
2022-08-08T08:30:49.338Z,36.80
2022-08-08T08:33:17.281Z,36.90
2022-08-08T08:36:18.521Z,37.00
2022-08-08T08:38:35.549Z,37.30
2022-08-08T08:41:17.890Z,37.80
2022-08-08T08:43:49.701Z,38.30
2022-08-08T08:46:17.743Z,38.70
2022-08-08T08:48:49.188Z,38.80
2022-08-08T08:51:17.836Z,39.00
2022-08-08T08:53:57.095Z,39.20
2022-08-08T08:56:31.748Z,39.20
2022-08-08T08:59:05.572Z,38.80
2022-08-08T09:01:43.817Z,38.30
2022-08-08T09:04:31.402Z,38.00
2022-08-08T09:07:13.020Z,38.00
2022-08-08T09:09:57.236Z,38.10
2022-08-08T09:12:40.207Z,38.50
2022-08-08T09:15:13.084Z,38.50
2022-08-08T09:17:55.305Z,38.70
2022-08-08T09:21:59.700Z,38.80
2022-08-08T09:23:25.214Z,39.10
2022-08-08T09:26:03.230Z,39.30
2022-08-08T09:28:40.329Z,39.60
2022-08-08T09:31:42.790Z,39.40
2022-08-08T09:34:34.505Z,39.10
2022-08-08T09:37:57.223Z,38.60
2022-08-08T09:40:11.889Z,38.10
2022-08-08T09:42:51.786Z,37.70
2022-08-08T09:45:55.407Z,37.90
2022-08-08T09:48:36.466Z,38.40
2022-08-08T09:51:06.162Z,38.10
2022-08-08T09:53:59.939Z,37.80
2022-08-08T09:56:40.083Z,37.90
2022-08-08T09:59:40.352Z,38.50
2022-08-08T10:02:14.587Z,39.00
2022-08-08T10:04:48.031Z,38.40
2022-08-08T10:07:16.350Z,36.90
2022-08-08T10:10:00.015Z,36.20
2022-08-08T10:12:38.603Z,35.60
2022-08-08T10:15:21.876Z,36.10
2022-08-08T10:18:06.003Z,37.40
2022-08-08T10:20:57.630Z,37.80
2022-08-08T10:23:58.135Z,38.30
2022-08-08T10:26:57.293Z,39.00
2022-08-08T10:29:43.886Z,39.60
2022-08-08T10:32:33.974Z,39.80
2022-08-08T10:35:04.284Z,40.00
2022-08-08T10:37:38.280Z,40.60
2022-08-08T10:40:16.949Z,40.70
2022-08-08T10:42:45.295Z,40.50
2022-08-08T10:45:15.913Z,40.50
2022-08-08T10:47:48.763Z,40.50
2022-08-08T10:50:30.722Z,40.40
2022-08-08T10:53:07.708Z,40.10
2022-08-08T10:55:46.429Z,40.00
2022-08-08T10:58:15.718Z,40.30
2022-08-08T11:00:48.673Z,40.00
2022-08-08T11:03:36.353Z,39.80
2022-08-08T11:06:12.662Z,39.50
2022-08-08T11:08:49.902Z,39.60
2022-08-08T11:11:59.913Z,39.80
2022-08-08T11:14:08.456Z,40.00
2022-08-08T11:16:46.922Z,40.10
2022-08-08T11:19:15.729Z,40.40
2022-08-08T11:21:55.328Z,40.80
2022-08-08T11:24:26.353Z,41.20
2022-08-08T11:26:57.873Z,41.40
2022-08-08T11:29:41.649Z,41.40
2022-08-08T11:32:14.854Z,41.30
2022-08-08T11:35:08.292Z,41.50
2022-08-08T11:38:34.403Z,41.70
2022-08-08T11:40:21.461Z,41.90
2022-08-08T11:42:54.025Z,41.70
2022-08-08T11:45:22.471Z,41.40
2022-08-08T11:48:02.464Z,41.20
2022-08-08T11:50:33.854Z,40.80
2022-08-08T11:53:05.910Z,40.30
2022-08-08T11:55:36.253Z,40.00
2022-08-08T11:58:14.463Z,39.90
2022-08-08T12:00:52.347Z,39.70
2022-08-08T12:03:20.952Z,39.60
2022-08-08T12:05:48.866Z,39.60
2022-08-08T12:08:17.996Z,39.60
2022-08-08T12:10:50.096Z,39.70
2022-08-08T12:13:37.603Z,39.90
2022-08-08T12:16:30.627Z,40.00
2022-08-08T12:19:02.075Z,39.80
2022-08-08T12:22:00.007Z,39.90
2022-08-08T12:24:28.006Z,39.90
2022-08-08T12:26:58.522Z,40.00
2022-08-08T12:29:42.048Z,40.00
2022-08-08T12:32:20.817Z,40.10
2022-08-08T12:35:13.483Z,40.10
2022-08-08T12:38:00.946Z,40.10
2022-08-08T12:40:37.877Z,40.10
2022-08-08T12:43:46.271Z,39.90
2022-08-08T12:46:26.113Z,39.80
2022-08-08T12:49:25.137Z,39.50
2022-08-08T12:51:58.671Z,39.20
2022-08-08T12:54:40.800Z,38.90
2022-08-08T12:57:17.713Z,38.60
2022-08-08T13:00:05.881Z,38.30
2022-08-08T13:02:51.113Z,38.40
2022-08-08T13:05:26.569Z,38.50
2022-08-08T13:08:16.181Z,39.00
2022-08-08T13:10:57.008Z,39.30
2022-08-08T13:13:35.269Z,39.50
2022-08-08T13:16:26.006Z,39.10
2022-08-08T13:19:00.574Z,38.50
2022-08-08T13:21:49.179Z,38.10
2022-08-08T13:24:18.817Z,38.20
2022-08-08T13:27:11.802Z,38.20
2022-08-08T13:30:20.865Z,37.70
2022-08-08T13:32:57.330Z,37.50
2022-08-08T13:35:38.624Z,37.50
2022-08-08T13:38:13.237Z,37.40
2022-08-08T13:40:45.162Z,37.30
2022-08-08T13:43:16.724Z,37.20
2022-08-08T13:45:47.232Z,37.30
2022-08-08T13:48:19.673Z,37.60
2022-08-08T13:50:57.543Z,37.70
2022-08-08T13:53:34.265Z,37.80
2022-08-08T13:56:11.056Z,37.80
2022-08-08T13:58:57.399Z,37.40
2022-08-08T14:01:42.142Z,37.30
2022-08-08T14:04:22.371Z,37.00
2022-08-08T14:06:58.808Z,36.60
2022-08-08T14:10:05.227Z,36.60
2022-08-08T14:12:29.669Z,36.60
2022-08-08T14:14:57.729Z,36.70
2022-08-08T14:17:58.295Z,36.70
2022-08-08T14:20:15.804Z,36.00
2022-08-08T14:23:21.345Z,35.40
2022-08-08T14:26:10.567Z,35.30
2022-08-08T14:28:39.655Z,35.20
2022-08-08T14:31:11.451Z,34.90
2022-08-08T14:33:53.901Z,34.30
2022-08-08T14:36:32.866Z,33.50
2022-08-08T14:39:01.196Z,32.80
2022-08-08T14:41:53.848Z,32.40
2022-08-08T14:44:22.095Z,32.00
2022-08-08T14:47:00.343Z,31.60
2022-08-08T14:49:33.708Z,31.30
2022-08-08T14:52:21.039Z,31.10
2022-08-08T14:54:49.102Z,30.90
2022-08-08T14:57:16.727Z,30.70
2022-08-08T14:59:50.824Z,30.40
2022-08-08T15:02:30.925Z,30.40
2022-08-08T15:05:08.032Z,30.60
2022-08-08T15:07:39.361Z,30.60
2022-08-08T15:10:09.548Z,30.60
2022-08-08T15:12:37.467Z,30.80
2022-08-08T15:15:06.611Z,31.00
2022-08-08T15:17:36.899Z,31.10
2022-08-08T15:20:06.730Z,31.10
2022-08-08T15:22:38.479Z,31.20
2022-08-08T15:25:08.753Z,31.30
2022-08-08T15:28:03.814Z,31.40
2022-08-08T15:30:32.022Z,31.40
2022-08-08T15:32:59.625Z,31.30
2022-08-08T15:35:27.276Z,31.10
2022-08-08T15:37:57.005Z,31.10
2022-08-08T15:40:28.154Z,31.10
2022-08-08T15:42:55.752Z,31.10
2022-08-08T15:45:23.046Z,31.20
2022-08-08T15:48:05.326Z,31.20
2022-08-08T15:51:03.139Z,30.90
2022-08-08T15:53:49.055Z,30.60
2022-08-08T15:56:20.277Z,30.30
2022-08-08T15:58:48.538Z,30.10
2022-08-08T16:01:15.701Z,30.00
2022-08-08T16:03:42.592Z,30.00
2022-08-08T16:06:13.495Z,29.90
2022-08-08T16:13:01.077Z,29.70
2022-08-08T16:13:10.085Z,29.60
2022-08-08T16:14:16.075Z,29.60
2022-08-08T16:16:59.940Z,29.40
2022-08-08T16:19:27.376Z,29.30
2022-08-08T16:21:57.366Z,29.20
2022-08-08T16:24:24.191Z,29.00
2022-08-08T16:26:51.162Z,28.90
2022-08-08T16:29:36.975Z,28.90
2022-08-08T16:32:12.967Z,28.80
2022-08-08T16:34:41.108Z,28.80
2022-08-08T16:37:07.840Z,28.70
2022-08-08T16:40:01.207Z,28.70
2022-08-08T16:42:25.080Z,28.60
2022-08-08T16:44:55.007Z,28.40
2022-08-08T16:47:40.108Z,28.30
2022-08-08T16:50:15.739Z,28.20
2022-08-08T16:55:23.924Z,28.10
2022-08-08T16:55:53.023Z,28.00
2022-08-08T16:58:26.453Z,27.90
2022-08-08T17:00:54.369Z,27.80
2022-08-08T17:03:25.261Z,27.70
2022-08-08T17:06:35.378Z,27.60
2022-08-08T17:08:58.372Z,27.50
2022-08-08T17:11:28.339Z,27.40
2022-08-08T17:14:11.648Z,27.40
2022-08-08T17:16:57.400Z,27.40
2022-08-08T17:19:27.289Z,27.30
2022-08-08T17:21:54.412Z,27.30
2022-08-08T17:24:27.867Z,27.20
2022-08-08T17:26:57.766Z,27.10
2022-08-08T17:29:25.547Z,27.00
2022-08-08T17:31:52.832Z,27.00
2022-08-08T17:34:37.112Z,27.00
2022-08-08T17:37:08.369Z,26.90
2022-08-08T17:40:05.135Z,26.90
2022-08-08T17:42:24.239Z,26.80
2022-08-08T17:44:52.619Z,26.70
2022-08-08T17:47:24.063Z,26.60
2022-08-08T17:50:01.606Z,26.50
2022-08-08T17:52:35.103Z,26.40
2022-08-08T17:55:05.073Z,26.30
2022-08-08T17:57:35.512Z,26.10
2022-08-08T18:00:13.371Z,26.00
2022-08-08T18:02:58.093Z,26.00
2022-08-08T18:05:48.391Z,25.90
2022-08-08T18:08:24.456Z,25.80
2022-08-08T18:11:14.877Z,25.70
2022-08-08T18:13:47.518Z,25.60
2022-08-08T18:16:20.184Z,25.50
2022-08-08T18:18:53.679Z,25.50
2022-08-08T18:21:58.815Z,25.40
2022-08-08T18:24:17.594Z,25.30
2022-08-08T18:26:54.584Z,25.20
2022-08-08T18:29:33.840Z,25.00
2022-08-08T18:32:04.138Z,25.00
2022-08-08T18:34:32.977Z,24.80
2022-08-08T18:37:00.671Z,24.70
2022-08-08T18:39:29.170Z,24.60
2022-08-08T18:42:02.993Z,24.60
2022-08-08T18:44:30.221Z,24.50
2022-08-08T18:47:00.531Z,24.30
2022-08-08T18:49:32.291Z,24.30
2022-08-08T18:52:07.670Z,24.20
2022-08-08T18:54:34.701Z,24.10
2022-08-08T18:57:03.912Z,24.00
2022-08-08T18:59:38.320Z,23.90
2022-08-08T19:02:25.507Z,23.80
2022-08-08T19:04:52.666Z,23.70
2022-08-08T19:07:23.144Z,23.60
2022-08-08T19:10:13.743Z,23.50
2022-08-08T19:12:44.258Z,23.40
2022-08-08T19:15:12.333Z,23.20
2022-08-08T19:17:48.192Z,23.10
2022-08-08T19:20:29.573Z,23.10
2022-08-08T19:22:56.267Z,23.00
2022-08-08T19:26:01.402Z,22.90
2022-08-08T19:28:17.700Z,22.80
2022-08-08T19:31:03.393Z,22.80
2022-08-08T19:33:51.613Z,22.70
2022-08-08T19:36:25.275Z,22.50
2022-08-08T19:38:55.156Z,22.40
2022-08-08T19:41:25.575Z,22.30
2022-08-08T19:44:02.530Z,22.30
2022-08-08T19:46:33.685Z,22.20
2022-08-08T19:49:01.473Z,22.00
2022-08-08T19:51:34.058Z,21.90
2022-08-08T19:54:01.170Z,21.90
2022-08-08T19:56:40.629Z,21.80
2022-08-08T19:59:10.084Z,21.70
2022-08-08T20:02:02.615Z,21.60
2022-08-08T20:04:27.692Z,21.50
2022-08-08T20:06:56.762Z,21.50
2022-08-08T20:09:24.343Z,21.40
2022-08-08T20:11:52.229Z,21.30
2022-08-08T20:14:34.498Z,21.30
2022-08-08T20:17:03.729Z,21.20
2022-08-08T20:19:34.594Z,21.10
2022-08-08T20:22:20.532Z,21.00
2022-08-08T20:24:48.342Z,20.90
2022-08-08T20:27:20.672Z,20.90
2022-08-08T20:29:55.803Z,20.80
2022-08-08T20:32:28.404Z,20.80
2022-08-08T20:35:01.139Z,20.70
2022-08-08T20:37:46.822Z,20.70
2022-08-08T20:40:17.292Z,20.70
2022-08-08T20:42:55.191Z,20.60
2022-08-08T20:45:54.367Z,20.60
2022-08-08T20:48:09.639Z,20.50
2022-08-08T20:50:36.775Z,20.40
2022-08-08T20:53:10.921Z,20.40
2022-08-08T20:55:45.152Z,20.40
2022-08-08T20:58:22.849Z,20.40
2022-08-08T21:00:50.764Z,20.40
2022-08-08T21:03:17.564Z,20.30
2022-08-08T21:05:58.383Z,20.20
2022-08-08T21:08:36.145Z,20.10
2022-08-08T21:11:09.130Z,20.10
2022-08-08T21:13:41.001Z,20.00
2022-08-08T21:16:18.218Z,19.90
2022-08-08T21:18:47.955Z,19.90
2022-08-08T21:21:19.564Z,19.90
2022-08-08T21:24:02.781Z,19.90
2022-08-08T21:26:32.531Z,19.80
2022-08-08T21:29:02.381Z,19.80
2022-08-08T21:31:53.128Z,19.80
2022-08-08T21:34:18.672Z,19.80
2022-08-08T21:36:50.655Z,19.70
2022-08-08T21:39:19.390Z,19.70
2022-08-08T21:41:53.678Z,19.70
2022-08-08T21:44:25.984Z,19.60
2022-08-08T21:48:08.620Z,19.60
2022-08-08T21:49:39.523Z,19.70
2022-08-08T21:54:34.359Z,19.60
2022-08-08T21:55:02.464Z,19.70
2022-08-08T21:57:42.456Z,19.60
2022-08-08T22:00:14.444Z,19.70
2022-08-08T22:02:45.396Z,19.60
2022-08-08T22:05:14.683Z,19.60
2022-08-08T22:07:44.166Z,19.60
2022-08-08T22:10:18.551Z,19.60
2022-08-08T22:13:16.944Z,19.60
2022-08-08T22:15:59.521Z,19.50
2022-08-08T22:18:33.467Z,19.50
2022-08-08T22:21:13.887Z,19.50
2022-08-08T22:23:50.780Z,19.40
2022-08-08T22:26:29.200Z,19.40
2022-08-08T22:29:13.701Z,19.30
2022-08-08T22:31:44.195Z,19.30
2022-08-08T22:34:29.574Z,19.30
2022-08-08T22:36:56.307Z,19.30
2022-08-08T22:39:23.091Z,19.30
2022-08-08T22:42:10.090Z,19.30
2022-08-08T22:44:37.427Z,19.20
2022-08-08T22:47:17.511Z,19.20
2022-08-08T22:49:45.050Z,19.10
2022-08-08T22:52:26.049Z,19.10
2022-08-08T22:54:55.985Z,19.10
2022-08-08T22:57:43.685Z,19.00
2022-08-08T23:00:13.720Z,19.00
2022-08-08T23:02:44.725Z,18.90
2022-08-08T23:05:17.477Z,18.90
2022-08-08T23:07:54.197Z,18.90
2022-08-08T23:10:26.866Z,18.90
2022-08-08T23:12:55.109Z,18.90
2022-08-08T23:16:41.310Z,18.90
2022-08-08T23:18:11.913Z,18.80
2022-08-08T23:20:43.244Z,18.80
2022-08-08T23:23:12.357Z,18.80
2022-08-08T23:25:47.984Z,18.70
2022-08-08T23:28:17.803Z,18.70
2022-08-08T23:30:45.775Z,18.70
2022-08-08T23:33:18.940Z,18.60
2022-08-08T23:36:06.735Z,18.60
2022-08-08T23:38:33.283Z,18.50
2022-08-08T23:41:00.082Z,18.50
2022-08-08T23:43:31.628Z,18.50
2022-08-08T23:49:00.668Z,18.40
2022-08-08T23:49:03.217Z,18.40
2022-08-08T23:52:05.068Z,18.40
2022-08-08T23:54:42.157Z,18.30
2022-08-08T23:57:25.487Z,18.30
2022-08-08T23:59:55.652Z,18.30
